Alpental, Washington
Current Conditions -  °F | °C
As of 4:34 AM on Thursday 18 Dec 2014 (Local Time) from KRNT Reporting Station
Overcast Overcast  
Wind Chill: 42°   Ceiling: 3800
Heat Index: 45°   Visibility: 7mi
Dew Point: 44°   Wind: 6mph
Humidity: 97%   Direction: 110°ESE
Pressure: 29.94"   Gusts: NA
Location:  47.4076°N, 121.414°W
Report Text: KRNT 181234Z AUTO 11005KT 7SM FEW025 OVC038 07/07 A2994 RMK AO2 T00720067
Loading
Personal Weather Stations






























Interactive Weather Map New forecast layout! Learn more

10-Day Weather Forecast

Advertisements
Track Severe Weather on mobile